Time;durP1;ratioP1;P1;durP2;ratioP2;P2;SDS_P1;SDS_P2;PMS_P1;PMS_P2;Temp;Humidity;BMP_temperature;BMP_pressure;BME280_temperature;BME280_humidity;BME280_pressure;Samples;Min_cycle;Max_cycle;Signal;HPM_P1;HPM_P2
2022/03/14 00:00:09;;;;;;;9.75;6.97;;;9.50;60.20;;;;;;5063869;28;20056;-84
2022/03/14 00:02:35;;;;;;;12.93;6.97;;;8.90;60.00;;;;;;5065272;28;20044;-84
2022/03/14 00:05:05;;;;;;;13.23;7.30;;;10.20;61.00;;;;;;5063678;28;20049;-84
2022/03/14 00:07:37;;;;;;;16.77;7.28;;;8.90;60.70;;;;;;5064448;28;20451;-84
2022/03/14 00:10:04;;;;;;;9.30;6.18;;;9.90;61.80;;;;;;5065418;28;20055;-84
2022/03/14 00:12:30;;;;;;;12.35;6.57;;;8.80;61.10;;;;;;5065503;28;20124;-84
2022/03/14 00:14:58;;;;;;;12.15;6.88;;;8.80;61.50;;;;;;5063416;28;20056;-84
2022/03/14 00:17:25;;;;;;;12.20;7.07;;;10.00;62.80;;;;;;5047006;28;20048;-84
2022/03/14 00:19:51;;;;;;;9.38;6.28;;;8.70;62.60;;;;;;5066013;28;20044;-84
2022/03/14 00:22:20;;;;;;;13.02;7.60;;;8.70;63.00;;;;;;5080429;28;20104;-84
2022/03/14 00:24:46;;;;;;;10.30;7.20;;;8.60;63.00;;;;;;5067551;28;20053;-84
2022/03/14 00:27:12;;;;;;;11.90;7.20;;;9.90;64.50;;;;;;5065116;28;20337;-84
2022/03/14 00:29:38;;;;;;;11.13;7.50;;;8.50;64.30;;;;;;5069296;28;20352;-84
2022/03/14 00:32:04;;;;;;;11.25;7.28;;;8.50;64.80;;;;;;5067153;28;20278;-84
2022/03/14 00:34:30;;;;;;;12.35;7.32;;;8.40;65.50;;;;;;5050942;28;20048;-84
2022/03/14 00:36:56;;;;;;;14.48;8.32;;;8.50;65.90;;;;;;5068519;28;20045;-84
2022/03/14 00:39:21;;;;;;;12.48;7.03;;;8.30;66.80;;;;;;5051032;28;20041;-84
2022/03/14 00:41:47;;;;;;;12.40;7.88;;;8.30;67.30;;;;;;5051346;28;20136;-84
2022/03/14 00:44:15;;;;;;;11.07;6.75;;;8.30;67.70;;;;;;5034390;28;20051;-83
2022/03/14 00:46:41;;;;;;;17.33;6.93;;;9.30;68.70;;;;;;5069282;28;20117;-84
2022/03/14 00:49:07;;;;;;;10.85;6.65;;;8.30;69.00;;;;;;5066664;28;20087;-84
2022/03/14 00:51:34;;;;;;;12.20;7.15;;;9.60;70.20;;;;;;5069015;28;20072;-84
2022/03/14 00:54:01;;;;;;;10.73;6.85;;;8.50;69.90;;;;;;5050519;28;20052;-84
2022/03/14 00:56:27;;;;;;;11.27;7.00;;;8.60;70.30;;;;;;5066803;28;20049;-84
2022/03/14 00:58:53;;;;;;;14.43;7.03;;;8.60;70.70;;;;;;5050700;28;20105;-84
2022/03/14 01:01:19;;;;;;;9.48;6.55;;;9.80;71.40;;;;;;5068475;28;20049;-84
2022/03/14 01:03:44;;;;;;;10.50;6.72;;;8.80;71.70;;;;;;5068938;28;20044;-84
2022/03/14 01:06:10;;;;;;;11.88;6.30;;;8.50;71.40;;;;;;5066526;28;20377;-84
2022/03/14 01:08:36;;;;;;;10.88;5.97;;;8.90;72.70;;;;;;5050163;28;20051;-84
2022/03/14 01:11:01;;;;;;;10.77;6.50;;;9.90;74.10;;;;;;5066537;28;20071;-84
2022/03/14 01:13:27;;;;;;;12.93;7.57;;;9.60;74.40;;;;;;5067137;28;20060;-84
2022/03/14 01:15:53;;;;;;;9.93;6.35;;;9.10;74.80;;;;;;5017289;28;20408;-84
2022/03/14 01:18:19;;;;;;;11.82;6.55;;;9.20;75.80;;;;;;5068360;28;20056;-84
2022/03/14 01:20:45;;;;;;;10.10;6.30;;;10.60;77.70;;;;;;5066990;28;20044;-84
2022/03/14 01:23:10;;;;;;;10.15;6.10;;;9.40;77.70;;;;;;5033014;28;20142;-84
2022/03/14 01:25:37;;;;;;;10.63;6.78;;;9.80;78.90;;;;;;5066723;28;20080;-84
2022/03/14 01:28:03;;;;;;;15.88;6.47;;;9.50;79.90;;;;;;5066169;28;20044;-85
2022/03/14 01:30:29;;;;;;;9.75;5.78;;;9.50;80.30;;;;;;5066544;28;20041;-84
2022/03/14 01:32:55;;;;;;;10.23;6.32;;;10.70;82.20;;;;;;5068075;28;20036;-85
2022/03/14 01:35:21;;;;;;;14.48;6.75;;;10.70;82.60;;;;;;5066683;28;20117;-84
2022/03/14 01:37:50;;;;;;;11.63;6.43;;;10.90;83.90;;;;;;5066551;28;20045;-84
2022/03/14 01:40:17;;;;;;;8.98;5.82;;;9.70;83.90;;;;;;5067270;28;20040;-84
2022/03/14 01:42:43;;;;;;;12.43;6.53;;;10.50;86.50;;;;;;5033255;28;20507;-84
2022/03/14 01:45:10;;;;;;;11.65;6.38;;;9.80;85.90;;;;;;5049440;28;20052;-84
2022/03/14 01:47:38;;;;;;;8.73;5.45;;;10.20;86.90;;;;;;5049830;28;20053;-84
2022/03/14 01:50:05;;;;;;;9.13;6.00;;;9.80;88.10;;;;;;5050788;28;20337;-84
2022/03/14 01:52:31;;;;;;;11.80;6.43;;;9.80;88.50;;;;;;5066476;28;20392;-84
2022/03/14 01:54:57;;;;;;;10.27;6.35;;;10.50;89.50;;;;;;5067827;28;20048;-84
2022/03/14 01:57:23;;;;;;;10.30;6.07;;;10.30;90.10;;;;;;5065436;28;20097;-84
2022/03/14 01:59:48;;;;;;;9.80;5.97;;;9.90;90.40;;;;;;5065865;28;20119;-84
2022/03/14 02:02:14;;;;;;;8.98;5.65;;;9.90;90.50;;;;;;5032259;28;20044;-84
2022/03/14 02:04:40;;;;;;;8.77;6.00;;;9.90;90.80;;;;;;5049626;28;20055;-84
2022/03/14 02:07:06;;;;;;;9.25;5.70;;;10.80;91.10;;;;;;5066410;28;20067;-84
2022/03/14 02:09:31;;;;;;;12.38;6.18;;;9.90;91.60;;;;;;5066115;28;20048;-85
2022/03/14 02:11:57;;;;;;;9.43;5.88;;;9.90;91.60;;;;;;5066529;28;20136;-84
2022/03/14 02:14:24;;;;;;;7.28;5.05;;;10.60;92.20;;;;;;5066852;28;20064;-84
2022/03/14 02:16:50;;;;;;;10.75;5.88;;;11.00;92.80;;;;;;5065110;28;20211;-84
2022/03/14 02:19:17;;;;;;;8.18;5.20;;;10.90;92.90;;;;;;5064840;28;20143;-84
2022/03/14 02:21:43;;;;;;;10.65;5.95;;;9.80;92.80;;;;;;5049139;28;20036;-84
2022/03/14 02:24:09;;;;;;;8.68;5.57;;;11.00;93.70;;;;;;5065521;28;20494;-84
2022/03/14 02:26:39;;;;;;;8.35;5.13;;;9.70;93.90;;;;;;5065234;28;20047;-84
2022/03/14 02:29:09;;;;;;;8.90;6.10;;;9.70;94.20;;;;;;5049490;28;20053;-84
2022/03/14 02:31:37;;;;;;;10.27;5.90;;;9.60;94.80;;;;;;5065493;28;20716;-84
2022/03/14 02:34:07;;;;;;;9.63;5.90;;;9.60;94.70;;;;;;5049070;28;20051;-84
2022/03/14 02:36:39;;;;;;;11.90;6.13;;;9.70;95.30;;;;;;5047885;28;20040;-84
2022/03/14 02:39:08;;;;;;;8.15;5.38;;;10.80;95.50;;;;;;5067009;28;20037;-84
2022/03/14 02:41:34;;;;;;;8.57;5.53;;;11.10;95.80;;;;;;5049610;28;20037;-84
2022/03/14 02:44:01;;;;;;;12.50;6.38;;;9.60;95.50;;;;;;5066862;28;20091;-84
2022/03/14 02:46:27;;;;;;;11.85;6.22;;;10.40;96.00;;;;;;5033420;28;20048;-84
2022/03/14 02:48:52;;;;;;;9.55;5.60;;;10.90;96.30;;;;;;5066589;28;20045;-85
2022/03/14 02:51:18;;;;;;;9.65;6.60;;;9.60;96.30;;;;;;5052622;28;20132;-85
2022/03/14 02:53:44;;;;;;;10.90;5.63;;;9.60;96.60;;;;;;5067905;28;20055;-85
2022/03/14 02:56:10;;;;;;;8.82;5.85;;;9.60;96.80;;;;;;5065127;28;20051;-84
2022/03/14 02:58:38;;;;;;;8.98;5.30;;;9.60;96.90;;;;;;5064972;28;20044;-84
2022/03/14 03:01:04;;;;;;;9.95;5.20;;;10.00;97.30;;;;;;5064513;28;20076;-84
2022/03/14 03:03:31;;;;;;;8.35;4.82;;;9.60;97.60;;;;;;5065139;28;20048;-84
2022/03/14 03:05:58;;;;;;;9.15;5.60;;;10.60;98.10;;;;;;5065497;28;20041;-84
2022/03/14 03:08:24;;;;;;;9.68;5.45;;;9.60;97.90;;;;;;5064924;28;20391;-84
2022/03/14 03:10:49;;;;;;;8.35;5.22;;;9.70;98.10;;;;;;5064385;28;20040;-84
2022/03/14 03:13:16;;;;;;;8.55;5.13;;;9.70;98.30;;;;;;5064447;28;20127;-84
2022/03/14 03:15:42;;;;;;;11.50;5.45;;;10.90;98.70;;;;;;5066497;28;20095;-84
2022/03/14 03:18:11;;;;;;;8.77;5.55;;;9.70;98.60;;;;;;5064472;28;20492;-84
2022/03/14 03:20:38;;;;;;;8.13;5.22;;;9.70;98.90;;;;;;5066087;28;20044;-84
2022/03/14 03:23:04;;;;;;;7.43;5.43;;;11.00;99.40;;;;;;5031061;28;20047;-84
2022/03/14 03:25:29;;;;;;;8.65;5.45;;;9.70;99.40;;;;;;5064203;28;20047;-84
2022/03/14 03:27:55;;;;;;;7.63;4.50;;;10.20;99.90;;;;;;5063701;28;20040;-84
2022/03/14 03:30:21;;;;;;;8.52;5.32;;;10.60;99.90;;;;;;5066117;28;20072;-84
2022/03/14 03:32:46;;;;;;;8.05;4.95;;;9.60;99.90;;;;;;5048405;28;20123;-84
2022/03/14 03:35:12;;;;;;;8.30;5.00;;;10.80;99.90;;;;;;5063768;28;20051;-84
2022/03/14 03:37:38;;;;;;;7.10;4.82;;;9.60;99.90;;;;;;5064330;28;20134;-84
2022/03/14 03:40:05;;;;;;;8.98;5.00;;;9.60;99.90;;;;;;5047094;28;20154;-84
2022/03/14 03:42:31;;;;;;;8.43;4.60;;;9.60;99.90;;;;;;5065656;28;20044;-84
2022/03/14 03:44:57;;;;;;;7.63;4.78;;;10.60;99.90;;;;;;5065026;28;20040;-84
2022/03/14 03:47:24;;;;;;;11.65;6.13;;;9.50;99.90;;;;;;5047725;28;20087;-84
2022/03/14 03:49:50;;;;;;;8.07;6.07;;;9.50;99.90;;;;;;5064258;28;20049;-84
2022/03/14 03:52:15;;;;;;;9.88;6.50;;;10.70;99.90;;;;;;5063779;28;20051;-84
2022/03/14 03:54:41;;;;;;;11.02;6.47;;;9.40;99.90;;;;;;5048203;28;20044;-84
2022/03/14 03:57:07;;;;;;;12.23;6.40;;;9.40;99.90;;;;;;5029917;28;20489;-84
2022/03/14 03:59:32;;;;;;;10.23;6.80;;;9.30;99.90;;;;;;5047749;28;20087;-84
2022/03/14 04:02:00;;;;;;;10.73;7.65;;;9.30;99.90;;;;;;5064856;28;20041;-84
2022/03/14 04:04:26;;;;;;;12.88;5.97;;;9.80;99.90;;;;;;5064179;28;20075;-84
2022/03/14 04:06:54;;;;;;;11.60;6.40;;;9.20;99.90;;;;;;5047347;28;20484;-84
2022/03/14 04:09:20;;;;;;;8.68;5.93;;;9.10;99.90;;;;;;5064107;28;20392;-84
2022/03/14 04:11:45;;;;;;;10.85;6.15;;;9.10;99.90;;;;;;5064006;28;20126;-84
2022/03/14 04:14:12;;;;;;;10.77;5.93;;;9.00;99.90;;;;;;5030439;28;20045;-84
2022/03/14 04:16:41;;;;;;;7.40;4.90;;;9.00;99.90;;;;;;5063896;28;20542;-84
2022/03/14 04:19:07;;;;;;;9.18;5.53;;;10.00;99.90;;;;;;5063320;28;20054;-84
2022/03/14 04:21:35;;;;;;;12.40;5.60;;;10.30;99.90;;;;;;5064482;28;20127;-84
2022/03/14 04:24:03;;;;;;;8.02;5.50;;;9.20;99.90;;;;;;5064458;28;20618;-84
2022/03/14 04:26:29;;;;;;;7.85;4.97;;;9.40;99.90;;;;;;5063451;28;20032;-84
2022/03/14 04:28:55;;;;;;;8.35;5.20;;;9.00;99.90;;;;;;5065324;28;20676;-84
2022/03/14 04:31:21;;;;;;;8.73;5.10;;;8.90;99.90;;;;;;5029757;28;20120;-84
2022/03/14 04:33:47;;;;;;;8.23;5.38;;;8.90;99.90;;;;;;5064476;28;20391;-84
2022/03/14 04:36:13;;;;;;;7.57;4.55;;;10.00;99.90;;;;;;5062671;28;20080;-84
2022/03/14 04:38:39;;;;;;;9.13;5.50;;;9.80;99.90;;;;;;5064890;28;20048;-84
2022/03/14 04:41:05;;;;;;;10.07;5.45;;;8.90;99.90;;;;;;5063835;28;20046;-85
2022/03/14 04:43:31;;;;;;;7.03;4.82;;;8.80;99.90;;;;;;5063591;28;20059;-85
2022/03/14 04:45:57;;;;;;;6.28;4.35;;;8.90;99.90;;;;;;5047623;28;20107;-85
2022/03/14 04:48:23;;;;;;;6.97;4.15;;;8.90;99.90;;;;;;5046194;28;20515;-85
2022/03/14 04:50:50;;;;;;;8.73;4.28;;;9.80;99.90;;;;;;5046795;28;20044;-85
2022/03/14 04:53:17;;;;;;;7.13;3.75;;;8.90;99.90;;;;;;5063278;28;20450;-85
2022/03/14 04:55:43;;;;;;;9.07;4.50;;;8.90;99.90;;;;;;5064988;28;20049;-85
2022/03/14 04:58:12;;;;;;;6.18;4.60;;;10.20;99.90;;;;;;5047527;28;20036;-85
2022/03/14 05:00:38;;;;;;;9.10;4.50;;;9.70;99.90;;;;;;5063557;28;20116;-85
2022/03/14 05:03:05;;;;;;;7.00;4.18;;;10.30;99.90;;;;;;5047111;28;20565;-85
2022/03/14 05:05:31;;;;;;;8.60;4.40;;;8.90;99.90;;;;;;5047453;28;20119;-85
2022/03/14 05:07:57;;;;;;;7.30;4.20;;;8.90;99.90;;;;;;5064792;28;20149;-85
2022/03/14 05:10:24;;;;;;;6.75;3.83;;;8.90;99.90;;;;;;5062868;28;20041;-85
2022/03/14 05:12:50;;;;;;;7.43;3.70;;;9.80;99.90;;;;;;5047465;28;20499;-85
2022/03/14 05:15:17;;;;;;;6.57;3.65;;;9.10;99.90;;;;;;5067428;28;20045;-85
2022/03/14 05:17:43;;;;;;;5.18;3.08;;;8.90;99.90;;;;;;5035059;28;20092;-85
2022/03/14 05:20:10;;;;;;;5.57;3.67;;;9.40;99.90;;;;;;5073732;28;20112;-84
2022/03/14 05:22:49;;;;;;;4.85;3.55;;;8.90;99.90;;;;;;5075986;28;20047;-84
2022/03/14 05:25:19;;;;;;;4.80;3.75;;;10.00;99.90;;;;;;5050442;28;20127;-84
2022/03/14 05:27:45;;;;;;;6.30;3.80;;;8.90;99.90;;;;;;5067823;28;20048;-85
2022/03/14 05:30:12;;;;;;;5.30;3.78;;;8.90;99.90;;;;;;5049955;28;20033;-87
2022/03/14 05:32:42;;;;;;;4.75;2.95;;;9.10;99.90;;;;;;5067711;28;20395;-85
2022/03/14 05:35:10;;;;;;;5.40;2.97;;;9.70;99.90;;;;;;5066501;28;20037;-84
2022/03/14 05:37:36;;;;;;;4.97;3.33;;;9.00;99.90;;;;;;5068524;28;20049;-83
2022/03/14 05:40:02;;;;;;;6.07;3.15;;;8.90;99.90;;;;;;5066470;28;20374;-82
2022/03/14 05:42:28;;;;;;;4.43;3.20;;;9.00;99.90;;;;;;5066794;28;20052;-83
2022/03/14 05:44:54;;;;;;;4.85;3.10;;;9.00;99.90;;;;;;5068332;28;20040;-82
2022/03/14 05:47:19;;;;;;;5.10;3.00;;;9.30;99.90;;;;;;5067165;28;20366;-82
2022/03/14 05:49:46;;;;;;;8.43;3.10;;;9.00;99.90;;;;;;5069052;28;20154;-83
2022/03/14 05:52:14;;;;;;;5.10;3.05;;;9.00;99.90;;;;;;5066229;28;20037;-83
2022/03/14 05:54:39;;;;;;;5.18;3.22;;;9.00;99.90;;;;;;5050350;28;20048;-84
2022/03/14 05:57:05;;;;;;;5.55;3.45;;;9.00;99.90;;;;;;5066790;28;20051;-87
2022/03/14 05:59:31;;;;;;;5.00;3.13;;;10.10;99.90;;;;;;5032529;28;20069;-84
2022/03/14 06:01:57;;;;;;;4.47;2.67;;;9.00;99.90;;;;;;5067229;28;20083;-85
2022/03/14 06:04:23;;;;;;;5.22;3.25;;;8.90;99.90;;;;;;5048913;28;20040;-83
2022/03/14 06:06:49;;;;;;;4.03;2.47;;;9.20;99.90;;;;;;5049826;28;20549;-85
2022/03/14 06:09:14;;;;;;;3.92;2.65;;;9.00;99.90;;;;;;5066136;28;20041;-81
2022/03/14 06:11:41;;;;;;;3.72;2.60;;;10.30;99.90;;;;;;5066614;28;20232;-80
2022/03/14 06:14:07;;;;;;;3.47;2.40;;;9.10;99.90;;;;;;5067360;28;20048;-80
2022/03/14 06:16:34;;;;;;;5.90;2.95;;;9.00;99.90;;;;;;5067372;28;20041;-80
2022/03/14 06:18:59;;;;;;;4.22;2.38;;;9.00;99.90;;;;;;5067993;28;20088;-81
2022/03/14 06:21:25;;;;;;;3.15;2.35;;;9.20;99.90;;;;;;5067966;28;20122;-81
2022/03/14 06:23:51;;;;;;;3.22;1.83;;;9.10;99.90;;;;;;5068344;28;20094;-81
2022/03/14 06:26:17;;;;;;;2.80;1.92;;;9.10;99.90;;;;;;5064724;28;20059;-81
2022/03/14 06:28:43;;;;;;;3.83;2.25;;;9.20;99.90;;;;;;5066384;28;20046;-81
2022/03/14 06:31:10;;;;;;;2.83;1.77;;;9.20;99.90;;;;;;5065643;28;20400;-79
2022/03/14 06:33:37;;;;;;;2.65;1.83;;;9.30;99.90;;;;;;5066485;28;20052;-81
2022/03/14 06:36:04;;;;;;;2.60;1.98;;;9.70;99.90;;;;;;5065878;28;20055;-81
2022/03/14 06:38:31;;;;;;;3.60;2.05;;;9.30;99.90;;;;;;5049309;28;20105;-81
2022/03/14 06:40:57;;;;;;;4.68;2.10;;;9.40;99.90;;;;;;5066556;28;20056;-80
2022/03/14 06:43:24;;;;;;;3.08;1.88;;;9.40;99.90;;;;;;5065589;28;20041;-81
2022/03/14 06:45:51;;;;;;;2.72;1.67;;;9.40;99.90;;;;;;5050010;28;20073;-81
2022/03/14 06:48:16;;;;;;;3.10;1.80;;;9.40;99.90;;;;;;5065753;28;20130;-81
2022/03/14 06:50:42;;;;;;;4.90;2.08;;;9.50;99.90;;;;;;5065660;28;20531;-81
2022/03/14 06:53:08;;;;;;;3.60;2.08;;;9.60;99.90;;;;;;5065730;28;20145;-81
2022/03/14 06:55:34;;;;;;;3.30;2.10;;;9.80;99.90;;;;;;5066473;28;20044;-81
2022/03/14 06:58:00;;;;;;;5.07;2.20;;;9.50;99.90;;;;;;5066391;28;20521;-81
2022/03/14 07:00:29;;;;;;;2.83;2.05;;;9.50;99.90;;;;;;5065597;28;20052;-81
2022/03/14 07:02:55;;;;;;;4.13;2.38;;;9.50;99.90;;;;;;5066050;28;20079;-81
2022/03/14 07:05:24;;;;;;;2.90;2.45;;;9.80;99.90;;;;;;5032077;28;20439;-82
2022/03/14 07:07:50;;;;;;;3.63;2.35;;;10.20;99.90;;;;;;5032496;28;20051;-81
2022/03/14 07:10:17;;;;;;;3.03;2.17;;;9.90;99.90;;;;;;5065220;28;20484;-81
2022/03/14 07:12:48;;;;;;;3.78;2.15;;;9.50;99.90;;;;;;5049312;28;20059;-81
2022/03/14 07:15:16;;;;;;;3.08;1.98;;;9.60;99.90;;;;;;5049093;28;20052;-81
2022/03/14 07:17:43;;;;;;;2.78;2.38;;;9.50;99.90;;;;;;5064315;28;20059;-81
2022/03/14 07:20:12;;;;;;;3.65;2.40;;;9.50;99.90;;;;;;5048994;28;20051;-81
2022/03/14 07:22:49;;;;;;;4.55;2.38;;;9.50;99.90;;;;;;5048076;28;20047;-81
2022/03/14 07:25:18;;;;;;;5.03;2.38;;;9.50;99.90;;;;;;5065754;28;20056;-81
2022/03/14 07:27:44;;;;;;;3.17;2.13;;;9.50;99.90;;;;;;5065138;28;20040;-81
2022/03/14 07:30:10;;;;;;;6.80;2.70;;;9.50;99.90;;;;;;5065310;28;20445;-82
2022/03/14 07:32:36;;;;;;;5.25;2.53;;;9.50;99.90;;;;;;5048935;28;20561;-81
2022/03/14 07:35:02;;;;;;;4.68;2.85;;;9.50;99.90;;;;;;5031250;28;20111;-81
2022/03/14 07:37:27;;;;;;;8.32;2.88;;;9.50;99.90;;;;;;5048395;28;20044;-81
2022/03/14 07:39:53;;;;;;;7.63;3.00;;;9.60;99.90;;;;;;5065996;28;20462;-81
2022/03/14 07:42:19;;;;;;;6.25;2.70;;;9.90;99.90;;;;;;5065520;28;20080;-81
2022/03/14 07:44:45;;;;;;;4.75;3.08;;;9.60;99.90;;;;;;5065315;28;20131;-79
2022/03/14 07:47:13;;;;;;;3.05;2.50;;;9.60;99.90;;;;;;5064629;28;20097;-79
2022/03/14 07:49:39;;;;;;;4.18;2.80;;;9.60;99.90;;;;;;5033137;28;20105;-80
2022/03/14 07:52:06;;;;;;;3.78;2.42;;;9.60;99.90;;;;;;5032289;28;20043;-80
2022/03/14 07:54:32;;;;;;;4.18;2.58;;;9.70;99.90;;;;;;5065047;28;20052;-81
2022/03/14 07:56:59;;;;;;;4.72;3.03;;;9.70;99.90;;;;;;5064008;28;20534;-80
2022/03/14 07:59:24;;;;;;;4.82;2.65;;;9.70;99.90;;;;;;5065217;28;20052;-81
2022/03/14 08:01:50;;;;;;;3.88;2.67;;;9.70;99.90;;;;;;5048003;28;20036;-81
2022/03/14 08:04:16;;;;;;;3.92;2.58;;;9.60;99.90;;;;;;5047993;28;20060;-80
2022/03/14 08:06:42;;;;;;;5.15;3.05;;;9.70;99.90;;;;;;5065115;28;20037;-81
2022/03/14 08:09:11;;;;;;;5.00;3.13;;;10.80;99.90;;;;;;5065466;28;20097;-80
2022/03/14 08:11:38;;;;;;;10.27;3.13;;;9.60;99.90;;;;;;5066235;28;20052;-81
2022/03/14 08:14:07;;;;;;;5.50;3.15;;;9.60;99.90;;;;;;5065637;28;20036;-81
2022/03/14 08:16:33;;;;;;;7.25;3.20;;;9.60;99.90;;;;;;5047739;28;20048;-81
2022/03/14 08:18:59;;;;;;;4.40;3.05;;;10.10;99.90;;;;;;5065238;28;20060;-80
2022/03/14 08:21:25;;;;;;;3.67;2.67;;;9.60;99.90;;;;;;5064361;28;20040;-80
2022/03/14 08:23:51;;;;;;;4.93;2.75;;;9.60;99.90;;;;;;5048568;28;20036;-81
2022/03/14 08:26:17;;;;;;;4.43;3.28;;;9.70;99.90;;;;;;5065069;28;20052;-81
2022/03/14 08:28:44;;;;;;;5.43;2.92;;;9.90;99.90;;;;;;5064489;28;20076;-81
2022/03/14 08:31:10;;;;;;;5.75;3.33;;;9.70;99.90;;;;;;5047386;28;20131;-80
2022/03/14 08:33:40;;;;;;;6.20;3.42;;;9.70;99.90;;;;;;5064448;28;20076;-81
2022/03/14 08:36:06;;;;;;;6.68;3.60;;;9.80;99.90;;;;;;5065852;28;20384;-81
2022/03/14 08:38:32;;;;;;;4.72;3.03;;;9.80;99.90;;;;;;5064035;28;20040;-81
2022/03/14 08:40:58;;;;;;;5.35;2.80;;;9.80;99.90;;;;;;5031918;28;20043;-81
2022/03/14 08:43:24;;;;;;;5.47;3.00;;;9.80;99.90;;;;;;5063574;28;20131;-80
2022/03/14 08:45:50;;;;;;;4.57;3.65;;;9.80;99.90;;;;;;5047551;28;20127;-81
2022/03/14 08:48:16;;;;;;;4.78;3.42;;;9.90;99.90;;;;;;5047273;28;20127;-81
2022/03/14 08:50:42;;;;;;;5.72;3.40;;;9.90;99.90;;;;;;5067980;28;20131;-81
2022/03/14 08:53:08;;;;;;;6.70;3.63;;;9.90;99.90;;;;;;5051549;28;20036;-81
2022/03/14 08:55:34;;;;;;;4.68;3.15;;;9.90;99.90;;;;;;5069652;28;20060;-81
2022/03/14 08:58:00;;;;;;;5.63;3.15;;;9.90;99.90;;;;;;5068332;28;20468;-80
2022/03/14 09:00:27;;;;;;;6.82;3.25;;;9.90;99.90;;;;;;5069114;28;20095;-80
2022/03/14 09:02:54;;;;;;;4.55;3.33;;;9.90;99.90;;;;;;5067846;28;20049;-80
2022/03/14 09:05:21;;;;;;;5.10;3.47;;;9.90;99.90;;;;;;5068641;28;20053;-80
2022/03/14 09:07:47;;;;;;;4.32;3.25;;;10.30;99.90;;;;;;5068045;28;20408;-80
2022/03/14 09:10:14;;;;;;;4.93;3.42;;;10.00;99.90;;;;;;5069230;28;20043;-80
2022/03/14 09:12:42;;;;;;;5.28;3.80;;;10.00;99.90;;;;;;5034957;28;20450;-80
2022/03/14 09:15:09;;;;;;;4.18;3.58;;;10.00;99.90;;;;;;5068319;28;20106;-80
2022/03/14 09:17:48;;;;;;;5.00;3.22;;;10.00;99.90;;;;;;5067987;28;20062;-80
2022/03/14 09:20:15;;;;;;;3.95;3.38;;;10.00;99.90;;;;;;5069290;28;20041;-80
2022/03/14 09:22:45;;;;;;;5.72;3.75;;;10.10;99.90;;;;;;5067350;28;20045;-80
2022/03/14 09:25:15;;;;;;;6.88;3.53;;;10.10;99.90;;;;;;5051285;28;20083;-80
2022/03/14 09:27:42;;;;;;;6.30;4.32;;;10.10;99.90;;;;;;5067809;28;20040;-80
2022/03/14 09:30:09;;;;;;;11.13;3.95;;;10.20;99.90;;;;;;5067319;28;20404;-81
2022/03/14 09:32:36;;;;;;;6.70;3.65;;;10.20;99.90;;;;;;5067518;28;20094;-80
2022/03/14 09:35:03;;;;;;;5.80;3.90;;;10.20;99.90;;;;;;5049868;28;20146;-80
2022/03/14 09:37:30;;;;;;;6.00;4.32;;;10.40;99.90;;;;;;5050817;28;20044;-80
2022/03/14 09:39:56;;;;;;;5.72;3.97;;;10.20;99.90;;;;;;5067360;28;20427;-80
2022/03/14 09:42:24;;;;;;;4.30;3.70;;;10.30;99.90;;;;;;5050659;28;20181;-81
2022/03/14 09:44:54;;;;;;;7.18;4.50;;;10.20;99.90;;;;;;5051316;28;20173;-80
2022/03/14 09:47:24;;;;;;;6.00;3.90;;;10.30;99.90;;;;;;5050411;28;20085;-80
2022/03/14 09:49:56;;;;;;;6.57;4.20;;;10.30;99.90;;;;;;5067827;28;20120;-80
2022/03/14 09:52:23;;;;;;;8.93;4.05;;;10.20;99.90;;;;;;5034077;28;20048;-80
2022/03/14 09:54:49;;;;;;;6.78;4.65;;;10.20;99.90;;;;;;5017491;28;20210;-80
2022/03/14 09:57:15;;;;;;;6.18;4.28;;;10.30;99.90;;;;;;5050369;28;20582;-81
2022/03/14 09:59:42;;;;;;;6.57;4.82;;;10.30;99.90;;;;;;5049655;28;20083;-80
2022/03/14 10:02:12;;;;;;;6.53;4.72;;;10.30;99.90;;;;;;5050961;28;20041;-80
2022/03/14 10:04:38;;;;;;;7.32;4.60;;;10.70;99.90;;;;;;5049653;28;20041;-80
2022/03/14 10:07:06;;;;;;;7.60;4.45;;;10.30;99.90;;;;;;5050209;28;20075;-80
2022/03/14 10:09:34;;;;;;;8.43;5.10;;;10.30;99.90;;;;;;5065879;28;20493;-80
2022/03/14 10:12:01;;;;;;;6.88;5.05;;;10.20;99.90;;;;;;5066804;28;20044;-80
2022/03/14 10:14:26;;;;;;;6.40;4.85;;;10.20;99.90;;;;;;5049957;28;20045;-81
2022/03/14 10:16:56;;;;;;;11.35;6.65;;;10.20;99.90;;;;;;5049249;28;20055;-80
2022/03/14 10:19:34;;;;;;;12.18;7.10;;;10.10;99.90;;;;;;5067676;28;20048;-81
2022/03/14 10:22:14;;;;;;;10.65;7.72;;;10.10;99.90;;;;;;5049420;28;20084;-80
2022/03/14 10:24:40;;;;;;;12.10;8.20;;;10.00;99.90;;;;;;5066800;28;20102;-81
2022/03/14 10:27:06;;;;;;;11.57;7.82;;;9.90;99.90;;;;;;5066283;28;20117;-80
2022/03/14 10:29:32;;;;;;;17.50;10.60;;;9.80;99.90;;;;;;5066522;28;20041;-80
2022/03/14 10:32:00;;;;;;;15.45;9.73;;;9.80;99.90;;;;;;5066962;28;20514;-80
2022/03/14 10:34:26;;;;;;;15.75;10.43;;;10.10;99.90;;;;;;5049441;28;20122;-80
2022/03/14 10:36:57;;;;;;;14.77;9.20;;;9.70;99.90;;;;;;5049826;28;20055;-80
2022/03/14 10:39:27;;;;;;;16.38;9.18;;;9.70;99.90;;;;;;5049140;28;20132;-80
2022/03/14 10:42:10;;;;;;;16.35;9.38;;;10.70;99.90;;;;;;5066458;28;20054;-80
2022/03/14 10:44:40;;;;;;;13.05;8.15;;;9.70;99.90;;;;;;5033908;28;20420;-79
2022/03/14 10:47:09;;;;;;;14.25;8.05;;;10.70;99.90;;;;;;5049315;28;20076;-80
2022/03/14 10:49:37;;;;;;;12.23;7.32;;;9.80;99.90;;;;;;5066058;28;20044;-80
2022/03/14 10:52:08;;;;;;;13.80;7.75;;;9.80;99.90;;;;;;5065842;28;20042;-80
2022/03/14 10:54:52;;;;;;;14.77;7.55;;;9.80;99.90;;;;;;5065950;28;20040;-80
2022/03/14 10:57:25;;;;;;;11.85;6.60;;;9.90;99.90;;;;;;5066055;28;20089;-80
2022/03/14 10:59:53;;;;;;;20.13;6.72;;;10.20;99.90;;;;;;5033474;28;20076;-80
2022/03/14 11:02:22;;;;;;;13.25;6.97;;;11.10;99.90;;;;;;5049882;28;20060;-80
2022/03/14 11:04:57;;;;;;;14.18;6.57;;;10.10;99.90;;;;;;5048703;28;20124;-80
2022/03/14 11:07:27;;;;;;;18.15;6.57;;;10.00;99.90;;;;;;5067129;28;20040;-80
2022/03/14 11:09:56;;;;;;;13.13;5.90;;;10.10;99.90;;;;;;5065745;28;20086;-80
2022/03/14 11:12:24;;;;;;;13.95;6.75;;;10.10;99.90;;;;;;5064619;28;20124;-80
2022/03/14 11:14:54;;;;;;;14.82;6.40;;;10.20;99.90;;;;;;5049403;28;20067;-80
2022/03/14 11:17:25;;;;;;;13.38;5.85;;;10.20;99.90;;;;;;5064696;28;20408;-79
2022/03/14 11:19:52;;;;;;;13.18;6.47;;;10.20;99.90;;;;;;5048858;28;20132;-80
2022/03/14 11:22:19;;;;;;;12.60;5.45;;;10.20;99.90;;;;;;5065062;28;20468;-80
2022/03/14 11:24:50;;;;;;;13.85;5.15;;;10.20;99.90;;;;;;5065756;28;20100;-79
2022/03/14 11:27:32;;;;;;;16.30;5.88;;;10.70;99.90;;;;;;5065761;28;20044;-80
2022/03/14 11:30:11;;;;;;;14.15;5.43;;;10.10;99.90;;;;;;5048288;28;20044;-80
2022/03/14 11:32:38;;;;;;;17.27;5.95;;;10.20;99.90;;;;;;5066536;28;20049;-79
2022/03/14 11:35:06;;;;;;;17.25;5.72;;;10.20;99.90;;;;;;5066017;28;20362;-80
2022/03/14 11:37:32;;;;;;;18.83;5.13;;;10.20;99.90;;;;;;5065396;28;20052;-79
2022/03/14 11:40:00;;;;;;;13.52;4.93;;;10.20;99.90;;;;;;5048752;28;20109;-79
2022/03/14 11:42:26;;;;;;;12.88;5.43;;;10.20;99.90;;;;;;5064807;28;20093;-80
2022/03/14 11:44:53;;;;;;;13.35;6.22;;;10.20;99.90;;;;;;5065941;28;20056;-80
2022/03/14 11:47:21;;;;;;;10.68;5.32;;;10.20;99.90;;;;;;5047387;28;20044;-80
2022/03/14 11:49:48;;;;;;;12.30;5.40;;;10.70;99.90;;;;;;5064803;28;20044;-79
2022/03/14 11:52:18;;;;;;;13.13;5.13;;;10.20;99.90;;;;;;5064057;28;20041;-79
2022/03/14 11:54:58;;;;;;;16.77;5.53;;;10.20;99.90;;;;;;5065719;28;20340;-80
2022/03/14 11:57:35;;;;;;;18.10;5.45;;;10.20;99.90;;;;;;5065513;28;20508;-80
2022/03/14 12:00:27;;;;;;;14.32;6.00;;;10.30;99.90;;;;;;5065519;28;20094;-80
2022/03/14 12:02:56;;;;;;;15.98;5.63;;;10.30;99.90;;;;;;5065963;28;20051;-80
2022/03/14 12:05:31;;;;;;;10.75;4.53;;;10.20;99.90;;;;;;5048694;28;20067;-80
2022/03/14 12:07:57;;;;;;;17.65;5.68;;;10.20;99.90;;;;;;5064476;28;20053;-80
2022/03/14 12:10:31;;;;;;;15.45;5.60;;;10.20;99.90;;;;;;5065294;28;20117;-80
2022/03/14 12:12:58;;;;;;;12.68;5.03;;;10.20;99.90;;;;;;5047090;28;20403;-80
2022/03/14 12:15:39;;;;;;;13.77;5.30;;;10.20;99.90;;;;;;5048494;28;20044;-80
2022/03/14 12:18:23;;;;;;;11.60;4.55;;;10.20;99.90;;;;;;5063700;28;20560;-80
2022/03/14 12:20:53;;;;;;;19.20;4.93;;;10.50;99.90;;;;;;5064618;28;20048;-80
2022/03/14 12:23:34;;;;;;;11.60;4.82;;;10.30;99.90;;;;;;5048296;28;20396;-80
2022/03/14 12:26:21;;;;;;;12.25;4.35;;;10.30;99.90;;;;;;5035176;28;20041;-80
2022/03/14 12:28:47;;;;;;;15.27;4.82;;;10.30;99.90;;;;;;5052786;28;20105;-80
2022/03/14 12:31:16;;;;;;;18.83;5.95;;;11.00;99.90;;;;;;5035103;28;20135;-80
2022/03/14 12:33:43;;;;;;;19.63;5.45;;;10.30;99.90;;;;;;5051639;28;20055;-80
2022/03/14 12:36:22;;;;;;;15.65;6.13;;;10.30;99.90;;;;;;5052805;28;20131;-79
2022/03/14 12:39:06;;;;;;;15.70;5.95;;;10.30;99.90;;;;;;5051330;28;20135;-80
2022/03/14 12:41:43;;;;;;;16.00;6.20;;;10.30;99.90;;;;;;5070331;28;20101;-80
2022/03/14 12:44:35;;;;;;;13.55;6.72;;;10.50;99.90;;;;;;5069820;28;20350;-79
2022/03/14 12:47:03;;;;;;;19.63;6.97;;;10.40;99.90;;;;;;5066466;28;20056;-79
2022/03/14 12:49:40;;;;;;;20.25;7.55;;;10.50;99.90;;;;;;5035346;28;20500;-79